sensor_id;sensor_type;location;lat;lon;timestamp;P1;durP1;ratioP1;P2;durP2;ratioP2
36391;SDS011;22639;42.690;23.356;2023-02-28T00:00:50;30.63;;;19.43;;
36391;SDS011;22639;42.690;23.356;2023-02-28T00:03:16;30.27;;;18.77;;
36391;SDS011;22639;42.690;23.356;2023-02-28T00:05:42;37.20;;;19.77;;
36391;SDS011;22639;42.690;23.356;2023-02-28T00:08:07;32.33;;;18.33;;
36391;SDS011;22639;42.690;23.356;2023-02-28T00:10:33;28.53;;;18.37;;
36391;SDS011;22639;42.690;23.356;2023-02-28T00:13:05;32.70;;;18.80;;
36391;SDS011;22639;42.690;23.356;2023-02-28T00:15:31;31.50;;;19.23;;
36391;SDS011;22639;42.690;23.356;2023-02-28T00:17:57;32.90;;;20.43;;
36391;SDS011;22639;42.690;23.356;2023-02-28T00:20:22;31.67;;;19.10;;
36391;SDS011;22639;42.690;23.356;2023-02-28T00:22:49;33.60;;;20.93;;
36391;SDS011;22639;42.690;23.356;2023-02-28T00:25:16;27.20;;;18.17;;
36391;SDS011;22639;42.690;23.356;2023-02-28T00:27:42;32.97;;;19.73;;
36391;SDS011;22639;42.690;23.356;2023-02-28T00:30:09;36.37;;;20.07;;
36391;SDS011;22639;42.690;23.356;2023-02-28T00:32:35;34.97;;;20.67;;
36391;SDS011;22639;42.690;23.356;2023-02-28T00:35:00;37.23;;;21.57;;
36391;SDS011;22639;42.690;23.356;2023-02-28T00:37:26;35.47;;;20.77;;
36391;SDS011;22639;42.690;23.356;2023-02-28T00:39:51;35.03;;;21.57;;
36391;SDS011;22639;42.690;23.356;2023-02-28T00:42:23;38.37;;;23.10;;
36391;SDS011;22639;42.690;23.356;2023-02-28T00:44:48;38.67;;;23.30;;
36391;SDS011;22639;42.690;23.356;2023-02-28T00:47:13;36.70;;;22.80;;
36391;SDS011;22639;42.690;23.356;2023-02-28T00:49:39;37.90;;;23.10;;
36391;SDS011;22639;42.690;23.356;2023-02-28T00:52:04;32.87;;;21.67;;
36391;SDS011;22639;42.690;23.356;2023-02-28T00:54:29;41.13;;;23.43;;
36391;SDS011;22639;42.690;23.356;2023-02-28T00:56:55;37.40;;;23.33;;
36391;SDS011;22639;42.690;23.356;2023-02-28T00:59:20;36.40;;;23.57;;
36391;SDS011;22639;42.690;23.356;2023-02-28T01:01:45;39.87;;;22.10;;
36391;SDS011;22639;42.690;23.356;2023-02-28T01:04:11;36.43;;;21.50;;
36391;SDS011;22639;42.690;23.356;2023-02-28T01:06:37;40.17;;;23.97;;
36391;SDS011;22639;42.690;23.356;2023-02-28T01:09:03;33.23;;;20.57;;
36391;SDS011;22639;42.690;23.356;2023-02-28T01:11:29;40.73;;;22.67;;
36391;SDS011;22639;42.690;23.356;2023-02-28T01:13:54;35.17;;;22.30;;
36391;SDS011;22639;42.690;23.356;2023-02-28T01:16:19;37.83;;;21.30;;
36391;SDS011;22639;42.690;23.356;2023-02-28T01:18:44;33.90;;;20.57;;
36391;SDS011;22639;42.690;23.356;2023-02-28T01:21:11;45.10;;;21.30;;
36391;SDS011;22639;42.690;23.356;2023-02-28T01:23:37;32.27;;;21.07;;
36391;SDS011;22639;42.690;23.356;2023-02-28T01:26:13;33.77;;;21.30;;
36391;SDS011;22639;42.690;23.356;2023-02-28T01:28:38;31.87;;;20.57;;
36391;SDS011;22639;42.690;23.356;2023-02-28T01:31:03;34.63;;;20.10;;
36391;SDS011;22639;42.690;23.356;2023-02-28T01:33:29;34.67;;;20.13;;
36391;SDS011;22639;42.690;23.356;2023-02-28T01:36:13;32.87;;;20.70;;
36391;SDS011;22639;42.690;23.356;2023-02-28T01:38:39;34.37;;;19.03;;
36391;SDS011;22639;42.690;23.356;2023-02-28T01:41:04;32.97;;;20.33;;
36391;SDS011;22639;42.690;23.356;2023-02-28T01:46:07;32.03;;;19.50;;
36391;SDS011;22639;42.690;23.356;2023-02-28T01:48:33;36.83;;;21.17;;
36391;SDS011;22639;42.690;23.356;2023-02-28T01:51:00;37.23;;;21.03;;
36391;SDS011;22639;42.690;23.356;2023-02-28T01:53:32;33.83;;;21.00;;
36391;SDS011;22639;42.690;23.356;2023-02-28T01:55:58;40.53;;;20.03;;
36391;SDS011;22639;42.690;23.356;2023-02-28T01:58:24;38.23;;;22.83;;
36391;SDS011;22639;42.690;23.356;2023-02-28T02:00:49;38.43;;;22.90;;
36391;SDS011;22639;42.690;23.356;2023-02-28T02:03:16;44.07;;;24.47;;
36391;SDS011;22639;42.690;23.356;2023-02-28T02:05:43;42.77;;;24.97;;
36391;SDS011;22639;42.690;23.356;2023-02-28T02:08:13;40.63;;;24.50;;
36391;SDS011;22639;42.690;23.356;2023-02-28T02:10:48;45.63;;;23.73;;
36391;SDS011;22639;42.690;23.356;2023-02-28T02:13:22;50.77;;;27.03;;
36391;SDS011;22639;42.690;23.356;2023-02-28T02:18:26;42.87;;;24.93;;
36391;SDS011;22639;42.690;23.356;2023-02-28T02:41:10;42.07;;;25.80;;
36391;SDS011;22639;42.690;23.356;2023-02-28T02:43:40;45.97;;;25.23;;
36391;SDS011;22639;42.690;23.356;2023-02-28T02:46:27;44.53;;;24.33;;
36391;SDS011;22639;42.690;23.356;2023-02-28T02:48:54;47.90;;;25.07;;
36391;SDS011;22639;42.690;23.356;2023-02-28T02:51:21;41.80;;;23.77;;
36391;SDS011;22639;42.690;23.356;2023-02-28T02:53:52;47.90;;;26.27;;
36391;SDS011;22639;42.690;23.356;2023-02-28T02:56:19;42.87;;;25.17;;
36391;SDS011;22639;42.690;23.356;2023-02-28T02:58:46;44.30;;;25.13;;
36391;SDS011;22639;42.690;23.356;2023-02-28T03:01:12;48.13;;;25.23;;
36391;SDS011;22639;42.690;23.356;2023-02-28T03:03:39;50.60;;;25.07;;
36391;SDS011;22639;42.690;23.356;2023-02-28T03:06:05;47.93;;;25.27;;
36391;SDS011;22639;42.690;23.356;2023-02-28T03:08:33;48.47;;;26.73;;
36391;SDS011;22639;42.690;23.356;2023-02-28T03:11:01;48.43;;;25.47;;
36391;SDS011;22639;42.690;23.356;2023-02-28T03:21:31;50.13;;;25.40;;
36391;SDS011;22639;42.690;23.356;2023-02-28T03:24:04;46.30;;;26.03;;
36391;SDS011;22639;42.690;23.356;2023-02-28T03:26:30;45.77;;;24.27;;
36391;SDS011;22639;42.690;23.356;2023-02-28T03:29:03;48.57;;;24.97;;
36391;SDS011;22639;42.690;23.356;2023-02-28T03:31:32;46.17;;;25.47;;
36391;SDS011;22639;42.690;23.356;2023-02-28T03:34:06;49.87;;;25.20;;
36391;SDS011;22639;42.690;23.356;2023-02-28T03:36:35;54.23;;;27.00;;
36391;SDS011;22639;42.690;23.356;2023-02-28T03:39:08;60.83;;;30.70;;
36391;SDS011;22639;42.690;23.356;2023-02-28T03:41:51;55.13;;;28.73;;
36391;SDS011;22639;42.690;23.356;2023-02-28T03:44:21;57.20;;;28.67;;
36391;SDS011;22639;42.690;23.356;2023-02-28T03:46:56;62.03;;;28.00;;
36391;SDS011;22639;42.690;23.356;2023-02-28T03:49:24;61.60;;;29.13;;
36391;SDS011;22639;42.690;23.356;2023-02-28T03:51:52;68.77;;;30.37;;
36391;SDS011;22639;42.690;23.356;2023-02-28T03:54:23;61.87;;;32.17;;
36391;SDS011;22639;42.690;23.356;2023-02-28T03:56:53;59.20;;;27.73;;
36391;SDS011;22639;42.690;23.356;2023-02-28T03:59:25;63.37;;;28.97;;
36391;SDS011;22639;42.690;23.356;2023-02-28T04:01:52;53.13;;;28.43;;
36391;SDS011;22639;42.690;23.356;2023-02-28T04:04:18;57.37;;;27.10;;
36391;SDS011;22639;42.690;23.356;2023-02-28T04:06:43;59.13;;;27.93;;
36391;SDS011;22639;42.690;23.356;2023-02-28T04:09:10;59.00;;;28.50;;
36391;SDS011;22639;42.690;23.356;2023-02-28T04:14:02;92.73;;;30.97;;
36391;SDS011;22639;42.690;23.356;2023-02-28T04:16:27;79.77;;;32.97;;
36391;SDS011;22639;42.690;23.356;2023-02-28T04:18:53;66.53;;;30.47;;
36391;SDS011;22639;42.690;23.356;2023-02-28T04:21:18;60.10;;;29.87;;
36391;SDS011;22639;42.690;23.356;2023-02-28T04:23:47;62.73;;;25.17;;
36391;SDS011;22639;42.690;23.356;2023-02-28T04:26:12;70.00;;;23.97;;
36391;SDS011;22639;42.690;23.356;2023-02-28T04:28:37;105.20;;;27.17;;
36391;SDS011;22639;42.690;23.356;2023-02-28T04:31:03;62.67;;;25.73;;
36391;SDS011;22639;42.690;23.356;2023-02-28T04:33:29;61.30;;;26.77;;
36391;SDS011;22639;42.690;23.356;2023-02-28T04:35:58;75.67;;;29.23;;
36391;SDS011;22639;42.690;23.356;2023-02-28T04:38:24;133.43;;;32.43;;
36391;SDS011;22639;42.690;23.356;2023-02-28T04:40:49;73.23;;;28.10;;
36391;SDS011;22639;42.690;23.356;2023-02-28T04:43:14;72.40;;;30.90;;
36391;SDS011;22639;42.690;23.356;2023-02-28T04:45:40;106.07;;;34.27;;
36391;SDS011;22639;42.690;23.356;2023-02-28T04:48:05;105.90;;;27.60;;
36391;SDS011;22639;42.690;23.356;2023-02-28T04:50:30;68.87;;;28.77;;
36391;SDS011;22639;42.690;23.356;2023-02-28T04:52:56;72.17;;;28.37;;
36391;SDS011;22639;42.690;23.356;2023-02-28T04:55:21;51.40;;;27.60;;
36391;SDS011;22639;42.690;23.356;2023-02-28T04:57:46;70.90;;;29.33;;
36391;SDS011;22639;42.690;23.356;2023-02-28T05:00:12;68.33;;;32.13;;
36391;SDS011;22639;42.690;23.356;2023-02-28T05:02:40;66.10;;;29.53;;
36391;SDS011;22639;42.690;23.356;2023-02-28T05:05:05;128.10;;;35.87;;
36391;SDS011;22639;42.690;23.356;2023-02-28T05:07:30;66.70;;;31.03;;
36391;SDS011;22639;42.690;23.356;2023-02-28T05:09:56;98.03;;;34.43;;
36391;SDS011;22639;42.690;23.356;2023-02-28T05:12:21;113.53;;;34.50;;
36391;SDS011;22639;42.690;23.356;2023-02-28T05:14:46;87.93;;;35.03;;
36391;SDS011;22639;42.690;23.356;2023-02-28T05:17:11;88.43;;;37.70;;
36391;SDS011;22639;42.690;23.356;2023-02-28T05:19:37;102.83;;;36.13;;
36391;SDS011;22639;42.690;23.356;2023-02-28T05:22:02;81.03;;;35.47;;
36391;SDS011;22639;42.690;23.356;2023-02-28T05:24:27;85.60;;;37.80;;
36391;SDS011;22639;42.690;23.356;2023-02-28T05:26:53;87.70;;;37.30;;
36391;SDS011;22639;42.690;23.356;2023-02-28T05:29:19;90.70;;;42.03;;
36391;SDS011;22639;42.690;23.356;2023-02-28T05:31:44;100.37;;;39.70;;
36391;SDS011;22639;42.690;23.356;2023-02-28T05:34:09;93.53;;;39.30;;
36391;SDS011;22639;42.690;23.356;2023-02-28T05:36:37;88.00;;;41.63;;
36391;SDS011;22639;42.690;23.356;2023-02-28T05:39:02;87.87;;;43.07;;
36391;SDS011;22639;42.690;23.356;2023-02-28T05:41:29;103.07;;;38.80;;
36391;SDS011;22639;42.690;23.356;2023-02-28T05:43:54;93.30;;;39.83;;
36391;SDS011;22639;42.690;23.356;2023-02-28T05:46:19;91.13;;;38.87;;
36391;SDS011;22639;42.690;23.356;2023-02-28T05:48:46;97.17;;;39.27;;
36391;SDS011;22639;42.690;23.356;2023-02-28T05:51:12;90.37;;;38.83;;
36391;SDS011;22639;42.690;23.356;2023-02-28T05:53:37;93.93;;;40.20;;
36391;SDS011;22639;42.690;23.356;2023-02-28T05:56:02;83.20;;;38.63;;
36391;SDS011;22639;42.690;23.356;2023-02-28T05:58:27;76.63;;;38.60;;
36391;SDS011;22639;42.690;23.356;2023-02-28T06:00:59;87.67;;;39.03;;
36391;SDS011;22639;42.690;23.356;2023-02-28T06:03:43;82.43;;;37.67;;
36391;SDS011;22639;42.690;23.356;2023-02-28T06:06:08;70.00;;;34.73;;
36391;SDS011;22639;42.690;23.356;2023-02-28T06:08:33;71.37;;;34.80;;
36391;SDS011;22639;42.690;23.356;2023-02-28T06:11:02;71.37;;;33.53;;
36391;SDS011;22639;42.690;23.356;2023-02-28T06:13:27;65.83;;;35.47;;
36391;SDS011;22639;42.690;23.356;2023-02-28T06:15:52;65.90;;;35.50;;
36391;SDS011;22639;42.690;23.356;2023-02-28T06:18:18;70.43;;;34.27;;
36391;SDS011;22639;42.690;23.356;2023-02-28T06:20:43;62.50;;;33.83;;
36391;SDS011;22639;42.690;23.356;2023-02-28T06:23:08;74.27;;;37.57;;
36391;SDS011;22639;42.690;23.356;2023-02-28T06:25:33;77.30;;;36.50;;
36391;SDS011;22639;42.690;23.356;2023-02-28T06:27:59;82.20;;;42.97;;
36391;SDS011;22639;42.690;23.356;2023-02-28T06:30:24;76.90;;;40.50;;
36391;SDS011;22639;42.690;23.356;2023-02-28T06:32:51;70.63;;;40.40;;
36391;SDS011;22639;42.690;23.356;2023-02-28T06:35:17;67.63;;;37.07;;
36391;SDS011;22639;42.690;23.356;2023-02-28T06:37:42;78.27;;;38.43;;
36391;SDS011;22639;42.690;23.356;2023-02-28T06:40:09;75.50;;;37.03;;
36391;SDS011;22639;42.690;23.356;2023-02-28T06:42:35;69.67;;;36.53;;
36391;SDS011;22639;42.690;23.356;2023-02-28T06:45:00;69.93;;;38.57;;
36391;SDS011;22639;42.690;23.356;2023-02-28T06:47:28;69.03;;;34.70;;
36391;SDS011;22639;42.690;23.356;2023-02-28T06:49:53;87.07;;;46.37;;
36391;SDS011;22639;42.690;23.356;2023-02-28T06:52:18;71.00;;;38.83;;
36391;SDS011;22639;42.690;23.356;2023-02-28T06:54:43;67.57;;;36.13;;
36391;SDS011;22639;42.690;23.356;2023-02-28T06:57:09;65.13;;;35.43;;
36391;SDS011;22639;42.690;23.356;2023-02-28T06:59:34;52.33;;;31.03;;
36391;SDS011;22639;42.690;23.356;2023-02-28T07:02:00;56.33;;;32.87;;
36391;SDS011;22639;42.690;23.356;2023-02-28T07:04:27;53.03;;;33.47;;
36391;SDS011;22639;42.690;23.356;2023-02-28T07:06:52;54.70;;;34.13;;
36391;SDS011;22639;42.690;23.356;2023-02-28T07:09:21;58.70;;;31.07;;
36391;SDS011;22639;42.690;23.356;2023-02-28T07:11:46;63.93;;;33.83;;
36391;SDS011;22639;42.690;23.356;2023-02-28T07:14:11;76.30;;;37.00;;
36391;SDS011;22639;42.690;23.356;2023-02-28T07:16:36;69.23;;;38.13;;
36391;SDS011;22639;42.690;23.356;2023-02-28T07:19:01;71.47;;;36.50;;
36391;SDS011;22639;42.690;23.356;2023-02-28T07:21:27;88.43;;;46.67;;
36391;SDS011;22639;42.690;23.356;2023-02-28T07:23:53;77.13;;;44.83;;
36391;SDS011;22639;42.690;23.356;2023-02-28T07:26:19;79.27;;;37.90;;
36391;SDS011;22639;42.690;23.356;2023-02-28T07:28:45;69.27;;;38.23;;
36391;SDS011;22639;42.690;23.356;2023-02-28T07:31:11;69.63;;;37.40;;
36391;SDS011;22639;42.690;23.356;2023-02-28T07:33:36;66.27;;;37.53;;
36391;SDS011;22639;42.690;23.356;2023-02-28T07:36:08;73.87;;;44.47;;
36391;SDS011;22639;42.690;23.356;2023-02-28T07:38:35;79.03;;;48.90;;
36391;SDS011;22639;42.690;23.356;2023-02-28T07:41:00;71.77;;;42.77;;
36391;SDS011;22639;42.690;23.356;2023-02-28T07:43:29;75.30;;;39.67;;
36391;SDS011;22639;42.690;23.356;2023-02-28T07:45:54;70.60;;;39.60;;
36391;SDS011;22639;42.690;23.356;2023-02-28T07:48:23;66.87;;;40.17;;
36391;SDS011;22639;42.690;23.356;2023-02-28T07:50:54;64.90;;;40.07;;
36391;SDS011;22639;42.690;23.356;2023-02-28T07:53:20;66.67;;;36.63;;
36391;SDS011;22639;42.690;23.356;2023-02-28T07:55:45;63.47;;;36.80;;
36391;SDS011;22639;42.690;23.356;2023-02-28T07:58:11;65.17;;;39.33;;
36391;SDS011;22639;42.690;23.356;2023-02-28T08:00:36;71.27;;;46.83;;
36391;SDS011;22639;42.690;23.356;2023-02-28T08:03:01;53.40;;;36.77;;
36391;SDS011;22639;42.690;23.356;2023-02-28T08:05:26;63.07;;;41.33;;
36391;SDS011;22639;42.690;23.356;2023-02-28T08:07:52;59.73;;;38.73;;
36391;SDS011;22639;42.690;23.356;2023-02-28T08:10:18;53.37;;;36.10;;
36391;SDS011;22639;42.690;23.356;2023-02-28T08:12:43;45.23;;;32.33;;
36391;SDS011;22639;42.690;23.356;2023-02-28T08:15:08;45.13;;;30.00;;
36391;SDS011;22639;42.690;23.356;2023-02-28T08:17:34;44.77;;;30.87;;
36391;SDS011;22639;42.690;23.356;2023-02-28T08:19:59;46.03;;;32.87;;
36391;SDS011;22639;42.690;23.356;2023-02-28T08:22:24;51.70;;;31.57;;
36391;SDS011;22639;42.690;23.356;2023-02-28T08:24:50;44.70;;;31.43;;
36391;SDS011;22639;42.690;23.356;2023-02-28T08:27:15;48.40;;;35.90;;
36391;SDS011;22639;42.690;23.356;2023-02-28T08:29:40;49.33;;;35.97;;
36391;SDS011;22639;42.690;23.356;2023-02-28T08:32:06;65.13;;;46.13;;
36391;SDS011;22639;42.690;23.356;2023-02-28T08:34:31;59.10;;;44.13;;
36391;SDS011;22639;42.690;23.356;2023-02-28T08:36:57;58.23;;;41.70;;
36391;SDS011;22639;42.690;23.356;2023-02-28T08:39:22;56.50;;;38.33;;
36391;SDS011;22639;42.690;23.356;2023-02-28T08:41:47;48.93;;;33.83;;
36391;SDS011;22639;42.690;23.356;2023-02-28T08:44:13;53.47;;;37.57;;
36391;SDS011;22639;42.690;23.356;2023-02-28T08:46:39;55.85;;;40.03;;
36391;SDS011;22639;42.690;23.356;2023-02-28T08:49:05;50.45;;;34.03;;
36391;SDS011;22639;42.690;23.356;2023-02-28T08:51:30;39.33;;;23.83;;
36391;SDS011;22639;42.690;23.356;2023-02-28T08:53:57;35.28;;;21.17;;
36391;SDS011;22639;42.690;23.356;2023-02-28T08:56:23;45.08;;;23.45;;
36391;SDS011;22639;42.690;23.356;2023-02-28T08:58:49;37.90;;;20.57;;
36391;SDS011;22639;42.690;23.356;2023-02-28T09:01:24;33.28;;;18.77;;
36391;SDS011;22639;42.690;23.356;2023-02-28T09:03:50;28.92;;;18.33;;
36391;SDS011;22639;42.690;23.356;2023-02-28T09:06:17;30.77;;;18.95;;
36391;SDS011;22639;42.690;23.356;2023-02-28T09:08:42;34.63;;;18.50;;
36391;SDS011;22639;42.690;23.356;2023-02-28T09:11:08;28.10;;;17.27;;
36391;SDS011;22639;42.690;23.356;2023-02-28T09:13:33;32.08;;;18.30;;
36391;SDS011;22639;42.690;23.356;2023-02-28T09:15:59;27.65;;;17.75;;
36391;SDS011;22639;42.690;23.356;2023-02-28T09:18:25;39.28;;;16.90;;
36391;SDS011;22639;42.690;23.356;2023-02-28T09:20:51;27.15;;;18.17;;
36391;SDS011;22639;42.690;23.356;2023-02-28T09:23:16;22.30;;;15.57;;
36391;SDS011;22639;42.690;23.356;2023-02-28T09:25:46;26.33;;;14.82;;
36391;SDS011;22639;42.690;23.356;2023-02-28T09:28:11;26.30;;;15.82;;
36391;SDS011;22639;42.690;23.356;2023-02-28T09:30:37;28.75;;;17.23;;
36391;SDS011;22639;42.690;23.356;2023-02-28T09:33:02;24.38;;;16.60;;
36391;SDS011;22639;42.690;23.356;2023-02-28T09:35:28;25.42;;;15.73;;
36391;SDS011;22639;42.690;23.356;2023-02-28T09:37:53;22.95;;;15.20;;
36391;SDS011;22639;42.690;23.356;2023-02-28T09:40:19;21.90;;;14.63;;
36391;SDS011;22639;42.690;23.356;2023-02-28T09:42:46;20.25;;;12.65;;
36391;SDS011;22639;42.690;23.356;2023-02-28T09:45:32;19.63;;;12.38;;
36391;SDS011;22639;42.690;23.356;2023-02-28T09:47:59;18.05;;;11.65;;
36391;SDS011;22639;42.690;23.356;2023-02-28T09:50:33;20.40;;;12.55;;
36391;SDS011;22639;42.690;23.356;2023-02-28T09:53:01;19.67;;;13.73;;
36391;SDS011;22639;42.690;23.356;2023-02-28T09:55:37;17.23;;;11.55;;
36391;SDS011;22639;42.690;23.356;2023-02-28T09:58:04;20.60;;;13.45;;
36391;SDS011;22639;42.690;23.356;2023-02-28T10:05:33;26.88;;;16.50;;
36391;SDS011;22639;42.690;23.356;2023-02-28T10:10:58;23.70;;;14.55;;
36391;SDS011;22639;42.690;23.356;2023-02-28T10:13:32;20.33;;;12.32;;
36391;SDS011;22639;42.690;23.356;2023-02-28T10:16:01;16.83;;;11.50;;
36391;SDS011;22639;42.690;23.356;2023-02-28T10:18:30;19.23;;;11.20;;
36391;SDS011;22639;42.690;23.356;2023-02-28T10:20:56;18.58;;;12.10;;
36391;SDS011;22639;42.690;23.356;2023-02-28T10:23:28;17.35;;;11.18;;
36391;SDS011;22639;42.690;23.356;2023-02-28T10:26:00;16.10;;;12.25;;
36391;SDS011;22639;42.690;23.356;2023-02-28T10:28:26;14.15;;;9.48;;
36391;SDS011;22639;42.690;23.356;2023-02-28T10:30:52;13.93;;;9.35;;
36391;SDS011;22639;42.690;23.356;2023-02-28T10:33:31;16.65;;;9.98;;
36391;SDS011;22639;42.690;23.356;2023-02-28T10:35:57;15.38;;;9.95;;
36391;SDS011;22639;42.690;23.356;2023-02-28T10:38:25;14.82;;;8.40;;
36391;SDS011;22639;42.690;23.356;2023-02-28T10:40:51;18.98;;;11.43;;
36391;SDS011;22639;42.690;23.356;2023-02-28T10:43:18;22.50;;;11.50;;
36391;SDS011;22639;42.690;23.356;2023-02-28T10:45:57;18.10;;;9.98;;
36391;SDS011;22639;42.690;23.356;2023-02-28T10:48:39;16.90;;;9.90;;
36391;SDS011;22639;42.690;23.356;2023-02-28T10:51:06;15.93;;;10.10;;
36391;SDS011;22639;42.690;23.356;2023-02-28T10:53:45;10.52;;;7.78;;
36391;SDS011;22639;42.690;23.356;2023-02-28T10:58:48;20.15;;;12.63;;
36391;SDS011;22639;42.690;23.356;2023-02-28T11:01:15;19.20;;;13.65;;
36391;SDS011;22639;42.690;23.356;2023-02-28T11:03:41;17.05;;;10.98;;
36391;SDS011;22639;42.690;23.356;2023-02-28T11:06:07;19.40;;;11.52;;
36391;SDS011;22639;42.690;23.356;2023-02-28T11:08:33;14.90;;;10.75;;
36391;SDS011;22639;42.690;23.356;2023-02-28T11:11:01;17.98;;;10.45;;
36391;SDS011;22639;42.690;23.356;2023-02-28T11:13:30;13.20;;;9.93;;
36391;SDS011;22639;42.690;23.356;2023-02-28T11:15:57;16.27;;;11.50;;
36391;SDS011;22639;42.690;23.356;2023-02-28T11:21:07;17.75;;;11.10;;
36391;SDS011;22639;42.690;23.356;2023-02-28T11:23:33;20.75;;;10.23;;
36391;SDS011;22639;42.690;23.356;2023-02-28T11:26:01;19.15;;;10.77;;
36391;SDS011;22639;42.690;23.356;2023-02-28T11:28:31;19.42;;;12.18;;
36391;SDS011;22639;42.690;23.356;2023-02-28T11:31:01;16.98;;;11.50;;
36391;SDS011;22639;42.690;23.356;2023-02-28T11:33:31;18.70;;;12.48;;
36391;SDS011;22639;42.690;23.356;2023-02-28T11:35:59;20.58;;;11.38;;
36391;SDS011;22639;42.690;23.356;2023-02-28T11:38:25;21.08;;;12.90;;
36391;SDS011;22639;42.690;23.356;2023-02-28T11:40:58;27.65;;;12.50;;
36391;SDS011;22639;42.690;23.356;2023-02-28T11:53:47;18.85;;;10.18;;
36391;SDS011;22639;42.690;23.356;2023-02-28T12:21:55;20.60;;;11.77;;
36391;SDS011;22639;42.690;23.356;2023-02-28T12:26:41;21.05;;;13.27;;
36391;SDS011;22639;42.690;23.356;2023-02-28T12:29:23;20.00;;;12.73;;
36391;SDS011;22639;42.690;23.356;2023-02-28T12:32:01;20.77;;;12.50;;
36391;SDS011;22639;42.690;23.356;2023-02-28T12:34:31;17.77;;;12.23;;
36391;SDS011;22639;42.690;23.356;2023-02-28T12:36:58;21.38;;;12.85;;
36391;SDS011;22639;42.690;23.356;2023-02-28T12:39:25;19.27;;;12.88;;
36391;SDS011;22639;42.690;23.356;2023-02-28T12:41:52;20.27;;;10.98;;
36391;SDS011;22639;42.690;23.356;2023-02-28T12:44:31;19.77;;;12.30;;
36391;SDS011;22639;42.690;23.356;2023-02-28T12:47:02;18.42;;;10.82;;
36391;SDS011;22639;42.690;23.356;2023-02-28T12:52:04;18.50;;;11.20;;
36391;SDS011;22639;42.690;23.356;2023-02-28T12:54:38;16.93;;;10.57;;
36391;SDS011;22639;42.690;23.356;2023-02-28T12:59:46;18.20;;;10.90;;
36391;SDS011;22639;42.690;23.356;2023-02-28T13:04:45;16.95;;;10.13;;
36391;SDS011;22639;42.690;23.356;2023-02-28T13:09:40;15.18;;;10.98;;
36391;SDS011;22639;42.690;23.356;2023-02-28T13:12:13;17.05;;;11.35;;
36391;SDS011;22639;42.690;23.356;2023-02-28T13:14:38;22.55;;;10.63;;
36391;SDS011;22639;42.690;23.356;2023-02-28T13:19:34;16.55;;;9.90;;
36391;SDS011;22639;42.690;23.356;2023-02-28T13:22:00;17.85;;;10.95;;
36391;SDS011;22639;42.690;23.356;2023-02-28T13:24:38;21.38;;;11.05;;
36391;SDS011;22639;42.690;23.356;2023-02-28T13:29:38;16.67;;;10.20;;
36391;SDS011;22639;42.690;23.356;2023-02-28T13:34:34;18.67;;;11.18;;
36391;SDS011;22639;42.690;23.356;2023-02-28T13:39:45;17.77;;;11.10;;
36391;SDS011;22639;42.690;23.356;2023-02-28T13:47:27;18.30;;;11.70;;
36391;SDS011;22639;42.690;23.356;2023-02-28T13:49:53;22.70;;;10.77;;
36391;SDS011;22639;42.690;23.356;2023-02-28T13:52:20;20.75;;;12.02;;
36391;SDS011;22639;42.690;23.356;2023-02-28T13:57:24;25.30;;;12.75;;
36391;SDS011;22639;42.690;23.356;2023-02-28T14:05:15;17.93;;;11.07;;
36391;SDS011;22639;42.690;23.356;2023-02-28T14:07:43;18.83;;;11.67;;
36391;SDS011;22639;42.690;23.356;2023-02-28T14:10:15;17.40;;;10.00;;
36391;SDS011;22639;42.690;23.356;2023-02-28T14:12:55;18.90;;;10.90;;
36391;SDS011;22639;42.690;23.356;2023-02-28T14:18:22;19.27;;;10.70;;
36391;SDS011;22639;42.690;23.356;2023-02-28T14:20:48;23.10;;;12.40;;
36391;SDS011;22639;42.690;23.356;2023-02-28T14:25:58;24.90;;;10.83;;
36391;SDS011;22639;42.690;23.356;2023-02-28T14:28:40;19.23;;;9.97;;
36391;SDS011;22639;42.690;23.356;2023-02-28T14:31:13;23.83;;;10.97;;
36391;SDS011;22639;42.690;23.356;2023-02-28T14:36:25;20.37;;;9.80;;
36391;SDS011;22639;42.690;23.356;2023-02-28T14:39:01;17.40;;;8.67;;
36391;SDS011;22639;42.690;23.356;2023-02-28T14:43:57;20.13;;;8.63;;
36391;SDS011;22639;42.690;23.356;2023-02-28T14:46:23;24.00;;;11.50;;
36391;SDS011;22639;42.690;23.356;2023-02-28T14:48:52;21.67;;;10.53;;
36391;SDS011;22639;42.690;23.356;2023-02-28T14:51:18;17.80;;;10.03;;
36391;SDS011;22639;42.690;23.356;2023-02-28T14:53:44;19.77;;;11.67;;
36391;SDS011;22639;42.690;23.356;2023-02-28T14:56:23;17.90;;;9.40;;
36391;SDS011;22639;42.690;23.356;2023-02-28T14:58:53;23.97;;;11.63;;
36391;SDS011;22639;42.690;23.356;2023-02-28T15:01:19;20.57;;;11.13;;
36391;SDS011;22639;42.690;23.356;2023-02-28T15:03:45;22.10;;;11.33;;
36391;SDS011;22639;42.690;23.356;2023-02-28T15:06:13;17.50;;;10.97;;
36391;SDS011;22639;42.690;23.356;2023-02-28T15:08:40;23.10;;;11.40;;
36391;SDS011;22639;42.690;23.356;2023-02-28T15:11:06;20.63;;;11.77;;
36391;SDS011;22639;42.690;23.356;2023-02-28T15:13:39;19.60;;;10.10;;
36391;SDS011;22639;42.690;23.356;2023-02-28T15:16:08;18.10;;;9.77;;
36391;SDS011;22639;42.690;23.356;2023-02-28T15:21:07;16.93;;;10.57;;
36391;SDS011;22639;42.690;23.356;2023-02-28T15:23:36;18.80;;;11.37;;
36391;SDS011;22639;42.690;23.356;2023-02-28T15:26:01;21.20;;;11.00;;
36391;SDS011;22639;42.690;23.356;2023-02-28T15:28:27;21.77;;;11.60;;
36391;SDS011;22639;42.690;23.356;2023-02-28T15:30:54;18.23;;;12.00;;
36391;SDS011;22639;42.690;23.356;2023-02-28T15:33:21;16.67;;;10.67;;
36391;SDS011;22639;42.690;23.356;2023-02-28T15:35:47;16.90;;;11.97;;
36391;SDS011;22639;42.690;23.356;2023-02-28T15:38:23;18.23;;;12.40;;
36391;SDS011;22639;42.690;23.356;2023-02-28T15:40:51;18.60;;;11.70;;
36391;SDS011;22639;42.690;23.356;2023-02-28T15:43:27;19.87;;;11.70;;
36391;SDS011;22639;42.690;23.356;2023-02-28T15:46:09;20.37;;;12.10;;
36391;SDS011;22639;42.690;23.356;2023-02-28T15:48:44;20.27;;;12.47;;
36391;SDS011;22639;42.690;23.356;2023-02-28T15:51:17;15.90;;;10.50;;
36391;SDS011;22639;42.690;23.356;2023-02-28T15:58:55;12.73;;;9.00;;
36391;SDS011;22639;42.690;23.356;2023-02-28T16:01:25;14.17;;;9.57;;
36391;SDS011;22639;42.690;23.356;2023-02-28T16:03:52;32.63;;;20.93;;
36391;SDS011;22639;42.690;23.356;2023-02-28T16:08:47;76.07;;;51.73;;
36391;SDS011;22639;42.690;23.356;2023-02-28T16:11:13;49.77;;;31.93;;
36391;SDS011;22639;42.690;23.356;2023-02-28T16:13:39;20.93;;;14.50;;
36391;SDS011;22639;42.690;23.356;2023-02-28T16:16:04;20.03;;;13.23;;
36391;SDS011;22639;42.690;23.356;2023-02-28T16:18:29;16.40;;;10.70;;
36391;SDS011;22639;42.690;23.356;2023-02-28T16:20:55;10.63;;;7.53;;
36391;SDS011;22639;42.690;23.356;2023-02-28T16:23:20;16.53;;;10.07;;
36391;SDS011;22639;42.690;23.356;2023-02-28T16:25:45;17.33;;;11.47;;
36391;SDS011;22639;42.690;23.356;2023-02-28T16:28:20;18.97;;;10.93;;
36391;SDS011;22639;42.690;23.356;2023-02-28T16:30:46;15.17;;;10.70;;
36391;SDS011;22639;42.690;23.356;2023-02-28T16:33:11;16.93;;;9.80;;